createdAt,value
2022-09-23T00:01:03.273Z,2.78
2022-09-23T00:03:30.333Z,2.90
2022-09-23T00:05:57.922Z,2.95
2022-09-23T00:08:24.947Z,2.90
2022-09-23T00:10:51.962Z,3.05
2022-09-23T00:13:18.976Z,2.65
2022-09-23T00:15:46.745Z,2.90
2022-09-23T00:18:13.857Z,2.97
2022-09-23T00:20:41.017Z,2.80
2022-09-23T00:23:08.014Z,2.85
2022-09-23T00:25:35.013Z,3.03
2022-09-23T00:28:03.211Z,3.10
2022-09-23T00:30:31.189Z,3.00
2022-09-23T00:32:58.379Z,3.15
2022-09-23T00:35:25.379Z,2.90
2022-09-23T00:37:52.388Z,3.40
2022-09-23T00:40:19.421Z,3.00
2022-09-23T00:42:46.774Z,3.15
2022-09-23T00:45:13.792Z,2.83
2022-09-23T00:47:40.816Z,2.95
2022-09-23T00:50:09.008Z,3.28
2022-09-23T00:52:36.010Z,2.90
2022-09-23T00:55:03.019Z,2.95
2022-09-23T00:57:31.261Z,2.80
2022-09-23T00:59:58.271Z,3.10
2022-09-23T01:02:25.332Z,2.80
2022-09-23T01:04:52.385Z,2.70
2022-09-23T01:07:19.406Z,3.13
2022-09-23T01:09:46.975Z,2.83
2022-09-23T01:12:13.966Z,3.05
2022-09-23T01:14:41.167Z,2.72
2022-09-23T01:17:08.232Z,3.05
2022-09-23T01:19:35.803Z,2.90
2022-09-23T01:22:02.820Z,2.90
2022-09-23T01:24:29.859Z,2.78
2022-09-23T01:26:56.856Z,2.63
2022-09-23T01:29:23.907Z,2.60
2022-09-23T01:31:50.950Z,2.65
2022-09-23T01:34:17.940Z,2.50
2022-09-23T01:36:44.985Z,2.80
2022-09-23T01:39:12.036Z,2.60
2022-09-23T01:41:39.187Z,2.50
2022-09-23T01:44:06.781Z,2.70
2022-09-23T01:46:33.770Z,2.75
2022-09-23T01:49:00.861Z,2.40
2022-09-23T01:51:27.894Z,2.60
2022-09-23T01:53:55.254Z,2.47
2022-09-23T01:56:22.267Z,2.67
2022-09-23T01:58:49.276Z,2.20
2022-09-23T02:01:16.346Z,2.30
2022-09-23T02:03:43.762Z,2.47
2022-09-23T02:06:10.760Z,2.50
2022-09-23T02:08:37.742Z,2.25
2022-09-23T02:11:04.739Z,2.47
2022-09-23T02:13:32.637Z,2.40
2022-09-23T02:16:01.148Z,2.50
2022-09-23T02:18:28.539Z,2.25
2022-09-23T02:20:55.544Z,2.05
2022-09-23T02:23:22.545Z,2.45
2022-09-23T02:25:49.547Z,2.28
2022-09-23T02:28:16.658Z,2.10
2022-09-23T02:30:43.654Z,2.25
2022-09-23T02:33:11.308Z,2.45
2022-09-23T02:35:40.299Z,2.50
2022-09-23T02:38:07.384Z,2.20
2022-09-23T02:40:34.569Z,2.20
2022-09-23T02:43:01.622Z,2.20
2022-09-23T02:45:28.699Z,2.10
2022-09-23T02:47:55.759Z,2.17
2022-09-23T02:50:22.832Z,2.33
2022-09-23T02:52:49.862Z,2.40
2022-09-23T02:55:16.879Z,2.10
2022-09-23T02:57:43.874Z,2.42
2022-09-23T03:00:10.881Z,2.20
2022-09-23T03:02:39.969Z,2.00
2022-09-23T03:05:07.036Z,2.30
2022-09-23T03:07:34.031Z,2.45
2022-09-23T03:10:01.029Z,2.22
2022-09-23T03:12:32.979Z,2.40
2022-09-23T03:15:00.028Z,2.10
2022-09-23T03:17:27.062Z,2.10
2022-09-23T03:19:54.056Z,2.25
2022-09-23T03:22:21.059Z,1.95
2022-09-23T03:24:50.743Z,2.10
2022-09-23T03:27:20.812Z,2.10
2022-09-23T03:29:47.806Z,1.90
2022-09-23T03:32:14.832Z,2.10
2022-09-23T03:34:41.828Z,2.10
2022-09-23T03:37:08.874Z,2.08
2022-09-23T03:39:35.887Z,2.08
2022-09-23T03:42:02.895Z,2.03
2022-09-23T03:44:29.890Z,2.10
2022-09-23T03:46:56.886Z,2.00
2022-09-23T03:49:24.298Z,2.13
2022-09-23T03:51:51.307Z,2.10
2022-09-23T03:54:20.372Z,2.20
2022-09-23T03:56:47.913Z,1.90
2022-09-23T03:59:17.923Z,2.00
2022-09-23T04:01:46.187Z,2.20
2022-09-23T04:04:13.287Z,2.20
2022-09-23T04:06:40.286Z,1.83
2022-09-23T04:09:07.292Z,2.08
2022-09-23T04:11:34.287Z,1.80
2022-09-23T04:14:01.327Z,2.13
2022-09-23T04:16:28.453Z,2.08
2022-09-23T04:18:55.499Z,2.10
2022-09-23T04:21:22.497Z,2.20
2022-09-23T04:23:49.648Z,2.30
2022-09-23T04:26:16.682Z,2.30
2022-09-23T04:28:43.699Z,2.03
2022-09-23T04:31:10.842Z,2.20
2022-09-23T04:33:38.010Z,2.20
2022-09-23T04:36:05.269Z,2.10
2022-09-23T04:38:32.265Z,2.25
2022-09-23T04:40:59.411Z,2.10
2022-09-23T04:43:26.464Z,1.95
2022-09-23T04:45:53.485Z,2.00
2022-09-23T04:48:20.485Z,2.08
2022-09-23T04:50:48.833Z,2.40
2022-09-23T04:53:16.417Z,2.00
2022-09-23T04:55:43.596Z,1.95
2022-09-23T04:58:10.611Z,2.20
2022-09-23T05:00:37.665Z,1.98
2022-09-23T05:03:04.702Z,2.10
2022-09-23T05:05:31.906Z,2.00
2022-09-23T05:07:58.937Z,2.08
2022-09-23T05:10:25.938Z,2.05
2022-09-23T05:12:57.080Z,2.08
2022-09-23T05:15:24.490Z,1.92
2022-09-23T05:17:51.492Z,1.80
2022-09-23T05:20:19.738Z,2.00
2022-09-23T05:22:46.857Z,2.20
2022-09-23T05:25:13.854Z,2.05
2022-09-23T05:27:40.867Z,1.88
2022-09-23T05:30:07.865Z,2.00
2022-09-23T05:32:34.879Z,2.05
2022-09-23T05:35:02.587Z,2.00
2022-09-23T05:37:29.652Z,1.85
2022-09-23T05:39:56.690Z,2.20
2022-09-23T05:42:24.111Z,2.20
2022-09-23T05:44:51.094Z,2.28
2022-09-23T05:47:18.112Z,2.30
2022-09-23T05:49:59.255Z,2.25
2022-09-23T05:52:26.907Z,2.25
2022-09-23T05:54:53.902Z,1.90
2022-09-23T05:57:21.485Z,2.15
2022-09-23T05:59:48.595Z,1.92
2022-09-23T06:02:15.787Z,2.13
2022-09-23T06:04:43.303Z,2.20
2022-09-23T06:07:10.443Z,1.90
2022-09-23T06:09:37.532Z,2.28
2022-09-23T06:12:04.599Z,2.25
2022-09-23T06:14:31.598Z,2.22
2022-09-23T06:16:58.806Z,2.00
2022-09-23T06:19:25.835Z,2.08
2022-09-23T06:21:52.969Z,2.00
2022-09-23T06:24:23.748Z,2.08
2022-09-23T06:26:53.041Z,2.20
2022-09-23T06:29:20.431Z,2.10
2022-09-23T06:31:47.531Z,2.20
2022-09-23T06:34:14.977Z,2.03
2022-09-23T06:36:45.000Z,1.90
2022-09-23T06:39:12.883Z,2.00
2022-09-23T06:41:39.882Z,2.00
2022-09-23T06:44:07.039Z,2.10
2022-09-23T06:46:34.232Z,2.13
2022-09-23T06:49:02.822Z,2.10
2022-09-23T06:51:29.825Z,2.10
2022-09-23T06:53:56.835Z,2.10
2022-09-23T06:56:24.732Z,2.20
2022-09-23T06:58:51.725Z,2.00
2022-09-23T07:01:19.942Z,2.00
2022-09-23T07:03:48.248Z,2.08
2022-09-23T07:06:15.380Z,2.35
2022-09-23T07:08:42.384Z,2.10
2022-09-23T07:11:13.381Z,2.28
2022-09-23T07:13:41.218Z,2.20
2022-09-23T07:16:08.329Z,1.95
2022-09-23T07:18:37.345Z,2.10
2022-09-23T07:21:04.607Z,1.90
2022-09-23T07:23:33.530Z,2.33
2022-09-23T07:26:00.615Z,2.30
2022-09-23T07:28:29.040Z,2.00
2022-09-23T07:31:00.307Z,2.00
2022-09-23T07:33:33.265Z,1.80
2022-09-23T07:36:00.487Z,1.83
2022-09-23T07:38:30.255Z,2.13
2022-09-23T07:40:57.479Z,1.95
2022-09-23T07:43:27.240Z,2.00
2022-09-23T07:45:54.616Z,2.10
2022-09-23T07:48:21.661Z,1.98
2022-09-23T07:50:49.802Z,1.98
2022-09-23T07:53:16.799Z,1.80
2022-09-23T07:55:43.796Z,2.03
2022-09-23T07:58:10.792Z,2.00
2022-09-23T08:00:37.876Z,2.08
2022-09-23T08:03:04.974Z,2.15
2022-09-23T08:05:32.033Z,2.15
2022-09-23T08:07:59.024Z,1.98
2022-09-23T08:10:26.045Z,1.95
2022-09-23T08:12:53.064Z,1.90
2022-09-23T08:15:20.060Z,1.95
2022-09-23T08:17:47.270Z,2.10
2022-09-23T08:20:36.901Z,2.17
2022-09-23T08:23:04.012Z,2.08
2022-09-23T08:25:34.314Z,2.17
2022-09-23T08:28:01.821Z,1.98
2022-09-23T08:30:28.831Z,2.25
2022-09-23T08:32:55.830Z,2.30
2022-09-23T08:35:22.916Z,2.40
2022-09-23T08:37:50.429Z,2.00
2022-09-23T08:40:17.548Z,2.00
2022-09-23T08:42:45.456Z,2.13
2022-09-23T08:45:12.439Z,2.10
2022-09-23T08:47:39.426Z,1.77
2022-09-23T08:50:06.692Z,1.77
2022-09-23T08:52:33.711Z,1.85
2022-09-23T08:55:00.702Z,2.15
2022-09-23T08:57:27.695Z,2.20
2022-09-23T08:59:54.756Z,1.60
2022-09-23T09:02:21.786Z,2.30
2022-09-23T09:04:48.955Z,2.10
2022-09-23T09:07:35.738Z,1.80
2022-09-23T09:10:03.501Z,1.87
2022-09-23T09:12:30.497Z,1.98
2022-09-23T09:15:00.042Z,1.75
2022-09-23T09:17:28.223Z,1.80
2022-09-23T09:19:57.727Z,1.73
2022-09-23T09:22:26.077Z,1.65
2022-09-23T09:24:53.109Z,2.15
2022-09-23T09:27:20.261Z,1.80
2022-09-23T09:29:50.043Z,1.83
2022-09-23T09:32:17.305Z,1.88
2022-09-23T09:34:44.303Z,1.70
2022-09-23T09:37:11.532Z,1.70
2022-09-23T09:39:38.527Z,1.80
2022-09-23T09:42:07.532Z,1.80
2022-09-23T09:44:37.162Z,1.65
2022-09-23T09:47:06.271Z,1.60
2022-09-23T09:49:38.141Z,1.63
2022-09-23T09:52:09.760Z,1.70
2022-09-23T09:54:36.791Z,1.60
2022-09-23T09:57:03.780Z,1.77
2022-09-23T09:59:30.784Z,1.60
2022-09-23T10:01:57.776Z,1.85
2022-09-23T10:04:25.066Z,1.77
2022-09-23T10:06:52.121Z,1.90
2022-09-23T10:09:19.538Z,1.58
2022-09-23T10:11:46.550Z,1.60
2022-09-23T10:14:13.615Z,1.60
2022-09-23T10:16:41.611Z,1.80
2022-09-23T10:19:08.691Z,1.45
2022-09-23T10:21:35.805Z,1.63
2022-09-23T10:24:03.101Z,1.75
2022-09-23T10:26:33.050Z,1.45
2022-09-23T10:29:00.151Z,1.50
2022-09-23T10:31:27.192Z,1.40
2022-09-23T10:34:03.500Z,1.70
2022-09-23T10:36:30.503Z,1.55
2022-09-23T10:39:17.479Z,1.60
2022-09-23T10:42:03.283Z,1.40
2022-09-23T10:44:48.892Z,1.70
2022-09-23T10:47:15.888Z,1.42
2022-09-23T10:49:43.774Z,1.50
2022-09-23T10:52:10.870Z,1.70
2022-09-23T10:54:37.902Z,1.58
2022-09-23T10:57:24.888Z,1.50
2022-09-23T10:59:51.878Z,1.33
2022-09-23T11:02:18.884Z,1.45
2022-09-23T11:04:46.068Z,1.50
2022-09-23T11:07:14.271Z,1.65
2022-09-23T11:09:41.340Z,1.50
2022-09-23T11:12:08.356Z,1.40
2022-09-23T11:14:38.776Z,1.40
2022-09-23T11:17:05.975Z,1.60
2022-09-23T11:19:34.205Z,1.60
2022-09-23T11:22:01.203Z,1.30
2022-09-23T11:24:28.199Z,1.58
2022-09-23T11:26:55.266Z,1.27
2022-09-23T11:29:22.281Z,1.40
2022-09-23T11:31:49.284Z,1.52
2022-09-23T11:34:16.280Z,1.63
2022-09-23T11:36:43.483Z,1.55
2022-09-23T11:39:10.496Z,1.70
2022-09-23T11:41:37.491Z,1.80
2022-09-23T11:44:04.568Z,1.55
2022-09-23T11:46:31.611Z,1.73
2022-09-23T11:48:58.716Z,1.80
2022-09-23T11:51:25.722Z,1.70
2022-09-23T11:53:52.749Z,1.40
2022-09-23T11:56:31.750Z,1.35
2022-09-23T11:59:00.271Z,1.92
2022-09-23T12:01:36.099Z,1.92
2022-09-23T12:04:15.748Z,1.60
2022-09-23T12:06:46.442Z,1.50
2022-09-23T12:09:13.465Z,1.70
2022-09-23T12:11:40.476Z,1.90
2022-09-23T12:14:07.552Z,1.75
2022-09-23T12:16:34.683Z,1.50
2022-09-23T12:19:03.351Z,1.70
2022-09-23T12:21:49.225Z,1.50
2022-09-23T12:24:19.264Z,1.38
2022-09-23T12:26:46.616Z,1.48
2022-09-23T12:29:13.636Z,1.60
2022-09-23T12:31:43.034Z,1.30
2022-09-23T12:34:11.162Z,1.50
2022-09-23T12:36:38.398Z,1.40
2022-09-23T12:39:05.427Z,1.60
2022-09-23T12:41:37.526Z,1.55
2022-09-23T12:44:04.554Z,1.38
2022-09-23T12:46:31.549Z,1.50
2022-09-23T12:48:59.029Z,1.60
2022-09-23T12:51:26.127Z,2.00
2022-09-23T12:53:54.030Z,1.58
2022-09-23T12:56:21.022Z,1.90
2022-09-23T12:58:48.202Z,1.98
2022-09-23T13:01:15.374Z,2.35
2022-09-23T13:04:01.278Z,2.42
2022-09-23T13:06:40.544Z,1.80
2022-09-23T13:09:07.549Z,1.95
2022-09-23T13:11:34.603Z,2.15
2022-09-23T13:14:02.316Z,1.58
2022-09-23T13:16:29.562Z,1.63
2022-09-23T13:18:56.823Z,1.70
2022-09-23T13:21:23.836Z,1.80
2022-09-23T13:23:50.837Z,1.65
2022-09-23T13:26:17.838Z,1.80
2022-09-23T13:28:44.828Z,1.65
2022-09-23T13:31:11.824Z,1.73
2022-09-23T13:33:39.040Z,1.80
2022-09-23T13:36:06.801Z,1.77
2022-09-23T13:38:35.491Z,1.65
2022-09-23T13:41:02.487Z,1.60
2022-09-23T13:43:31.770Z,1.60
2022-09-23T13:45:58.810Z,1.63
2022-09-23T13:48:27.138Z,1.88
2022-09-23T13:50:54.656Z,2.00
2022-09-23T13:53:21.708Z,2.05
2022-09-23T13:55:52.351Z,1.90
2022-09-23T13:58:19.665Z,1.70
2022-09-23T14:00:46.726Z,1.42
2022-09-23T14:03:13.805Z,1.35
2022-09-23T14:05:40.877Z,1.60
2022-09-23T14:08:07.862Z,1.70
2022-09-23T14:10:35.036Z,1.80
2022-09-23T14:13:02.032Z,1.35
2022-09-23T14:15:30.575Z,1.50
2022-09-23T14:17:57.578Z,1.80
2022-09-23T14:20:24.615Z,1.90
2022-09-23T14:22:51.693Z,1.50
2022-09-23T14:25:18.729Z,1.92
2022-09-23T14:27:47.199Z,1.58
2022-09-23T14:30:14.205Z,1.80
2022-09-23T14:32:41.274Z,1.70
2022-09-23T14:35:09.248Z,1.60
2022-09-23T14:37:54.643Z,1.67
2022-09-23T14:40:21.666Z,1.55
2022-09-23T14:42:48.750Z,1.63
2022-09-23T14:45:15.767Z,1.90
2022-09-23T14:47:42.755Z,1.70
2022-09-23T14:50:28.724Z,1.60
2022-09-23T14:52:55.724Z,1.40
2022-09-23T14:55:22.736Z,1.60
2022-09-23T14:57:49.735Z,1.40
2022-09-23T15:00:16.739Z,1.60
2022-09-23T15:02:43.821Z,1.77
2022-09-23T15:05:10.821Z,2.08
2022-09-23T15:07:37.812Z,2.15
2022-09-23T15:10:04.893Z,1.25
2022-09-23T15:12:31.907Z,2.10
2022-09-23T15:14:59.207Z,1.70
2022-09-23T15:17:26.280Z,1.27
2022-09-23T15:19:54.271Z,2.05
2022-09-23T15:22:21.300Z,2.15
2022-09-23T15:24:48.332Z,1.40
2022-09-23T15:27:15.339Z,2.55
2022-09-23T15:29:42.362Z,1.70
2022-09-23T15:32:10.203Z,1.70
2022-09-23T15:34:37.249Z,1.98
2022-09-23T15:37:04.294Z,1.40
2022-09-23T15:39:36.068Z,1.58
2022-09-23T15:42:03.492Z,1.60
2022-09-23T15:44:30.586Z,1.80
2022-09-23T15:46:59.210Z,1.88
2022-09-23T15:49:26.216Z,2.67
2022-09-23T15:51:53.304Z,1.90
2022-09-23T15:54:20.377Z,1.70
2022-09-23T15:56:47.838Z,2.00
2022-09-23T15:59:14.836Z,1.60
2022-09-23T16:01:41.966Z,1.98
2022-09-23T16:04:09.095Z,1.85
2022-09-23T16:06:36.184Z,2.13
2022-09-23T16:09:03.231Z,2.08
2022-09-23T16:11:31.750Z,1.98
2022-09-23T16:13:59.476Z,2.67
2022-09-23T16:16:27.779Z,1.80
2022-09-23T16:18:54.936Z,2.47
2022-09-23T16:21:21.932Z,2.08
2022-09-23T16:23:49.923Z,2.15
2022-09-23T16:26:17.194Z,2.40
2022-09-23T16:28:44.265Z,2.55
2022-09-23T16:31:11.943Z,2.83
2022-09-23T16:33:39.390Z,2.22
2022-09-23T16:36:06.383Z,2.95
2022-09-23T16:38:33.370Z,3.25
2022-09-23T16:41:00.903Z,3.28
2022-09-23T16:43:31.656Z,3.35
2022-09-23T16:45:58.790Z,3.40
2022-09-23T16:48:25.924Z,3.65
2022-09-23T16:50:54.112Z,4.35
2022-09-23T16:53:21.228Z,3.05
2022-09-23T16:55:48.295Z,2.85
2022-09-23T16:58:15.290Z,2.65
2022-09-23T17:01:01.280Z,3.00
2022-09-23T17:06:08.303Z,2.58
2022-09-23T17:08:35.427Z,2.40
2022-09-23T17:11:03.038Z,2.30
2022-09-23T17:13:31.045Z,2.42
2022-09-23T17:15:58.148Z,13.13
2022-09-23T17:18:25.261Z,16.73
2022-09-23T17:20:52.271Z,30.45
2022-09-23T17:23:19.484Z,25.45
2022-09-23T17:25:46.585Z,10.93
2022-09-23T17:28:13.642Z,3.15
2022-09-23T17:30:40.778Z,2.67
2022-09-23T17:33:09.049Z,3.35
2022-09-23T17:35:36.378Z,2.63
2022-09-23T17:38:03.366Z,2.72
2022-09-23T17:40:30.427Z,2.50
2022-09-23T17:42:57.435Z,2.90
2022-09-23T17:45:24.468Z,2.60
2022-09-23T17:47:54.837Z,2.95
2022-09-23T17:50:22.455Z,2.35
2022-09-23T17:52:49.497Z,2.55
2022-09-23T17:55:16.898Z,2.33
2022-09-23T17:57:43.894Z,2.22
2022-09-23T18:00:10.942Z,2.80
2022-09-23T18:02:37.966Z,2.58
2022-09-23T18:05:05.084Z,2.35
2022-09-23T18:07:32.087Z,2.50
2022-09-23T18:09:59.078Z,2.50
2022-09-23T18:12:26.112Z,2.58
2022-09-23T18:14:53.106Z,2.50
2022-09-23T18:17:20.108Z,2.60
2022-09-23T18:19:49.255Z,2.58
2022-09-23T18:22:16.316Z,2.60
2022-09-23T18:24:43.992Z,2.85
2022-09-23T18:27:10.993Z,2.83
2022-09-23T18:29:38.047Z,2.90
2022-09-23T18:32:05.143Z,2.97
2022-09-23T18:34:32.470Z,2.97
2022-09-23T18:36:59.701Z,2.65
2022-09-23T18:39:26.785Z,2.80
2022-09-23T18:41:54.835Z,2.58
2022-09-23T18:44:23.321Z,2.72
2022-09-23T18:46:50.324Z,3.10
2022-09-23T18:49:36.282Z,3.13
2022-09-23T18:54:30.441Z,3.78
2022-09-23T18:56:59.332Z,3.35
2022-09-23T18:59:29.597Z,3.85
2022-09-23T19:01:56.769Z,4.10
2022-09-23T19:04:23.916Z,3.83
2022-09-23T19:06:50.929Z,4.30
2022-09-23T19:09:17.958Z,4.10
2022-09-23T19:11:44.997Z,3.80
2022-09-23T19:14:12.167Z,3.58
2022-09-23T19:16:39.351Z,3.97
2022-09-23T19:19:06.540Z,3.75
2022-09-23T19:21:33.628Z,3.60
2022-09-23T19:24:03.915Z,3.50
2022-09-23T19:26:32.416Z,3.58
2022-09-23T19:28:59.687Z,3.80
2022-09-23T19:31:26.761Z,4.47
2022-09-23T19:33:56.258Z,3.90
2022-09-23T19:36:23.543Z,4.07
2022-09-23T19:38:51.595Z,3.70
2022-09-23T19:41:19.179Z,4.35
2022-09-23T19:43:46.216Z,3.95
2022-09-23T19:46:13.241Z,4.10
2022-09-23T19:48:40.621Z,3.63
2022-09-23T19:51:07.655Z,3.60
2022-09-23T19:53:34.657Z,3.83
2022-09-23T19:56:05.600Z,4.22
2022-09-23T19:58:33.075Z,4.00
2022-09-23T20:01:00.208Z,3.83
2022-09-23T20:03:27.331Z,4.50
2022-09-23T20:05:54.332Z,4.15
2022-09-23T20:08:21.517Z,4.80
2022-09-23T20:10:49.826Z,4.22
2022-09-23T20:13:17.439Z,4.15
2022-09-23T20:15:44.633Z,4.80
2022-09-23T20:18:11.708Z,4.57
2022-09-23T20:20:38.700Z,4.43
2022-09-23T20:23:06.098Z,4.05
2022-09-23T20:25:53.061Z,4.03
2022-09-23T20:28:21.251Z,4.05
2022-09-23T20:30:49.004Z,3.75
2022-09-23T20:33:15.997Z,3.92
2022-09-23T20:35:43.843Z,4.32
2022-09-23T20:38:10.841Z,4.25
2022-09-23T20:40:38.538Z,4.03
2022-09-23T20:43:05.658Z,4.40
2022-09-23T20:45:32.672Z,3.88
2022-09-23T20:48:00.233Z,4.43
2022-09-23T20:50:27.293Z,4.47
2022-09-23T20:52:54.304Z,4.47
2022-09-23T20:55:21.301Z,3.70
2022-09-23T20:57:48.698Z,4.15
2022-09-23T21:00:15.735Z,4.45
2022-09-23T21:02:43.376Z,3.90
2022-09-23T21:05:10.555Z,4.88
2022-09-23T21:07:37.619Z,4.47
2022-09-23T21:10:06.939Z,4.53
2022-09-23T21:12:35.191Z,4.25
2022-09-23T21:15:02.400Z,4.35
2022-09-23T21:17:29.401Z,3.85
2022-09-23T21:19:56.575Z,4.32
2022-09-23T21:22:23.832Z,4.07
2022-09-23T21:25:26.504Z,4.43
2022-09-23T21:27:38.453Z,4.20
2022-09-23T21:30:05.958Z,4.80
2022-09-23T21:32:35.027Z,3.90
2022-09-23T21:35:02.103Z,4.15
2022-09-23T21:37:29.094Z,3.90
2022-09-23T21:40:14.976Z,4.03
2022-09-23T21:45:09.131Z,4.25
2022-09-23T21:47:36.162Z,4.43
2022-09-23T21:50:04.190Z,5.07
2022-09-23T21:52:31.208Z,3.80
2022-09-23T21:54:58.212Z,3.92
2022-09-23T21:57:25.942Z,4.85
2022-09-23T21:59:54.189Z,4.05
2022-09-23T22:02:21.196Z,4.13
2022-09-23T22:04:48.263Z,4.13
2022-09-23T22:07:15.260Z,3.95
2022-09-23T22:09:42.266Z,3.67
2022-09-23T22:12:11.574Z,4.15
2022-09-23T22:14:39.143Z,3.83
2022-09-23T22:17:06.256Z,3.85
2022-09-23T22:19:35.209Z,3.88
2022-09-23T22:22:03.038Z,3.88
2022-09-23T22:24:30.055Z,3.78
2022-09-23T22:26:57.068Z,3.63
2022-09-23T22:29:42.713Z,4.20
2022-09-23T22:32:28.408Z,4.50
2022-09-23T22:34:56.040Z,3.75
2022-09-23T22:37:24.306Z,3.58
2022-09-23T22:39:52.106Z,4.10
2022-09-23T22:42:22.640Z,3.65
2022-09-23T22:44:50.518Z,3.83
2022-09-23T22:47:20.624Z,3.45
2022-09-23T22:49:48.121Z,3.58
2022-09-23T22:52:16.478Z,3.80
2022-09-23T22:54:44.094Z,3.78
2022-09-23T22:57:11.274Z,3.60
2022-09-23T22:59:38.690Z,3.95
2022-09-23T23:02:08.761Z,4.10
2022-09-23T23:04:37.365Z,3.20
2022-09-23T23:07:06.834Z,3.75
2022-09-23T23:09:34.401Z,3.50
2022-09-23T23:12:02.983Z,3.03
2022-09-23T23:14:31.677Z,3.47
2022-09-23T23:16:59.813Z,3.75
2022-09-23T23:19:27.190Z,3.35
2022-09-23T23:21:56.028Z,3.60
2022-09-23T23:24:24.909Z,3.85
2022-09-23T23:26:52.329Z,3.35
2022-09-23T23:29:19.767Z,3.38
2022-09-23T23:31:46.933Z,3.42
2022-09-23T23:34:13.970Z,3.22
2022-09-23T23:36:41.716Z,3.58
2022-09-23T23:39:09.076Z,3.50
2022-09-23T23:41:36.841Z,3.22
2022-09-23T23:44:04.235Z,3.45
2022-09-23T23:46:32.034Z,3.50
2022-09-23T23:48:59.352Z,3.25
2022-09-23T23:51:33.547Z,3.36
2022-09-23T23:54:00.845Z,3.42
2022-09-23T23:56:27.960Z,3.22
2022-09-23T23:58:55.089Z,3.20
